Stations météo

réclame
Mon MeteoGroup
Chamonix, France (7469): Température de l'air & dewpoint: 16.04.2019 16:00:00 - 22.04.2019 16:00:00 (CEST)Chamonix, France (7469): Vitesse du vent & gusts: 16.04.2019 16:00:00 - 22.04.2019 16:00:00 (CEST)Chamonix, France (7469): Direction du vent: 16.04.2019 16:00:00 - 22.04.2019 16:00:00 (CEST)Chamonix, France (7469): Quantités de précipitations: 16.04.2019 16:00:00 - 22.04.2019 16:00:00 (CEST)
Date & Time tt [°C] td [°C] ff [km/h] ff [knt] fx [km/h] fx [knt] dd rr [mm]
22.04.2019 16:00:00 - - - - - - - -
22.04.2019 15:00:00 22,2 -0,5 11 6 42 23 ENE 0,0
22.04.2019 14:00:00 20,2 0,1 16 9 50 27 NNE -
22.04.2019 13:00:00 19,6 -1,0 16 9 52 28 NNE 0,0
22.04.2019 12:00:00 17,6 -2,7 18 10 55 30 NNE 0,0
22.04.2019 11:00:00 16,0 -3,5 18 10 63 34 NNE 0,0
22.04.2019 10:00:00 14,7 -4,1 18 10 54 29 NNE 0,0
22.04.2019 09:00:00 13,1 -5,0 16 9 59 32 NNE 0,0
22.04.2019 08:00:00 12,3 -5,7 15 8 48 26 NNE -
22.04.2019 07:00:00 12,3 -6,7 11 6 42 23 NNE 0,0
22.04.2019 06:00:00 12,4 -6,6 8 4 39 21 NNE 0,0
22.04.2019 05:00:00 13,2 -8,1 13 7 46 25 NNE 0,0
22.04.2019 04:00:00 13,7 -7,7 15 8 48 26 N 0,0
22.04.2019 03:00:00 14,3 -3,5 8 4 46 25 E 0,0
22.04.2019 02:00:00 15,3 -6,3 9 5 59 32 E -
22.04.2019 01:00:00 13,7 -8,9 11 6 46 25 NNE 0,0
22.04.2019 00:00:00 12,0 -5,1 8 4 42 23 NE 0,0
21.04.2019 23:00:00 8,5 0,7 4 2 11 6 W 0,0
21.04.2019 22:00:00 7,7 0,6 2 1 9 5 NE 0,0
21.04.2019 21:00:00 9,9 0,5 4 2 9 5 W 0,0
21.04.2019 20:00:00 13,3 1,3 0 0 5 3 N -
21.04.2019 19:00:00 15,9 -3,1 4 2 11 6 SW 0,0
21.04.2019 18:00:00 17,2 -4,1 8 4 18 10 W 0,0
21.04.2019 17:00:00 17,7 -3,1 5 3 41 22 SE 0,0
21.04.2019 16:00:00 16,3 -3,8 8 4 22 12 SW 0,0
21.04.2019 15:00:00 16,7 -4,0 5 3 22 12 SSW 0,0
21.04.2019 14:00:00 16,4 -4,8 8 4 24 13 SW -
21.04.2019 13:00:00 16,0 -6,3 5 3 21 11 SSW 0,0
21.04.2019 12:00:00 15,8 -7,1 9 5 31 17 NNE 0,0
21.04.2019 11:00:00 14,7 -6,8 5 3 29 16 NE 0,0
21.04.2019 10:00:00 13,8 -7,0 9 5 28 15 NE 0,0
21.04.2019 09:00:00 12,8 -6,3 5 3 22 12 SSW 0,0
21.04.2019 08:00:00 11,5 -5,9 5 3 22 12 S -
21.04.2019 07:00:00 6,9 -3,9 2 1 13 7 SE 0,0
21.04.2019 06:00:00 7,9 -4,6 2 1 13 7 S 0,0
21.04.2019 05:00:00 9,0 -4,6 4 2 24 13 ENE 0,0
21.04.2019 04:00:00 11,5 -5,9 5 3 35 19 E 0,0
21.04.2019 03:00:00 12,5 -6,0 9 5 35 19 N 0,0
21.04.2019 02:00:00 12,6 -6,4 9 5 31 17 N -
21.04.2019 01:00:00 10,3 -5,3 4 2 18 10 ESE 0,0
21.04.2019 00:00:00 12,3 -7,7 8 4 35 19 ENE 0,0
20.04.2019 23:00:00 13,7 -11,0 11 6 29 16 NNE 0,0
20.04.2019 22:00:00 11,5 -5,5 8 4 22 12 N 0,0
20.04.2019 21:00:00 12,7 -7,4 8 4 22 12 NE 0,0
20.04.2019 20:00:00 15,5 -11,1 9 5 35 19 NNE -
20.04.2019 19:00:00 16,3 -8,8 5 3 29 16 NW 0,0
20.04.2019 18:00:00 19,1 -5,8 9 5 37 20 ENE 0,0
20.04.2019 17:00:00 19,7 -5,3 9 5 42 23 NE 0,0
20.04.2019 16:00:00 20,4 -4,0 8 4 34 18 ENE 0,0
20.04.2019 15:00:00 20,7 -4,5 8 4 28 15 SE 0,0
20.04.2019 14:00:00 19,6 -5,4 8 4 34 18 S -
20.04.2019 13:00:00 18,0 -4,7 8 4 37 20 NE 0,0
20.04.2019 12:00:00 16,3 -1,3 11 6 37 20 NE 0,0
20.04.2019 11:00:00 14,7 -1,4 11 6 44 24 NE 0,0
20.04.2019 10:00:00 12,9 -0,4 5 3 28 15 E 0,0
20.04.2019 09:00:00 8,9 1,1 4 2 22 12 E 0,0
20.04.2019 08:00:00 9,4 2,3 4 2 16 9 E -
20.04.2019 07:00:00 8,8 2,8 5 3 21 11 E 0,0
20.04.2019 06:00:00 8,5 2,9 5 3 31 17 NE 0,0
20.04.2019 05:00:00 10,1 2,0 9 5 29 16 NE 0,0
20.04.2019 04:00:00 11,0 0,7 8 4 26 14 NE 0,0
20.04.2019 03:00:00 11,1 0,5 4 2 22 12 E 0,0
20.04.2019 02:00:00 9,7 0,8 4 2 8 4 E -
20.04.2019 01:00:00 8,5 1,9 0 0 4 2 N 0,0
20.04.2019 00:00:00 8,4 2,0 0 0 5 3 N 0,0
19.04.2019 23:00:00 7,9 1,5 0 0 5 3 N 0,0
19.04.2019 22:00:00 8,2 2,0 0 0 4 2 N 0,0
19.04.2019 21:00:00 9,4 1,8 0 0 5 3 N 0,0
19.04.2019 20:00:00 12,3 2,2 2 1 11 6 ENE -
19.04.2019 19:00:00 15,9 -0,4 5 3 15 8 W 0,0
19.04.2019 18:00:00 17,2 -2,0 4 2 18 10 NE 0,0
19.04.2019 17:00:00 17,4 -2,9 5 3 15 8 N 0,0
19.04.2019 16:00:00 19,0 -2,0 8 4 18 10 NNE 0,0
19.04.2019 15:00:00 19,5 -1,1 8 4 28 15 NE 0,0
19.04.2019 14:00:00 18,4 -1,5 5 3 26 14 NNW -
19.04.2019 13:00:00 17,2 -1,5 9 5 24 13 NE 0,0
19.04.2019 12:00:00 16,2 -0,1 8 4 28 15 NE 0,0
19.04.2019 11:00:00 15,2 0,2 9 5 37 20 E 0,0
19.04.2019 10:00:00 12,6 -0,3 9 5 24 13 E 0,0
19.04.2019 09:00:00 10,2 -0,3 5 3 22 12 NE 0,0
19.04.2019 08:00:00 9,9 -0,9 8 4 28 15 NNE -
19.04.2019 07:00:00 9,8 -0,4 8 4 29 16 NNE 0,0
19.04.2019 06:00:00 9,3 -0,6 5 3 22 12 NNE 0,0
19.04.2019 05:00:00 9,5 -0,4 5 3 16 9 N 0,0
19.04.2019 04:00:00 10,1 -0,1 4 2 28 15 NNE 0,0
19.04.2019 03:00:00 10,7 -0,2 8 4 29 16 NNE 0,0
19.04.2019 02:00:00 11,1 -0,1 9 5 34 18 NNE -
19.04.2019 01:00:00 11,6 -0,3 8 4 37 20 NNE 0,0
19.04.2019 00:00:00 12,1 -0,4 8 4 35 19 NNE 0,0
18.04.2019 23:00:00 12,6 -0,3 9 5 34 18 N 0,0
18.04.2019 22:00:00 13,3 -0,4 8 4 22 12 NNE 0,0
18.04.2019 21:00:00 13,5 -0,2 4 2 16 9 N 0,0
18.04.2019 20:00:00 13,9 -0,2 2 1 11 6 NNE -
18.04.2019 19:00:00 16,2 -1,0 5 3 16 9 NE 0,0
18.04.2019 18:00:00 17,9 -1,4 4 2 24 13 NE 0,0
18.04.2019 17:00:00 20,1 -0,6 8 4 21 11 NNE 0,0
18.04.2019 16:00:00 19,3 -2,4 9 5 22 12 NNE 0,0
18.04.2019 15:00:00 19,0 -1,5 9 5 21 11 N 0,0
18.04.2019 14:00:00 18,9 -1,6 8 4 24 13 N -
18.04.2019 13:00:00 17,5 -0,7 8 4 29 16 NNE 0,0
18.04.2019 12:00:00 16,4 -1,2 9 5 26 14 NE 0,0
18.04.2019 11:00:00 14,8 -0,9 9 5 35 19 NE 0,0
18.04.2019 10:00:00 12,7 -0,9 9 5 41 22 NE 0,0
18.04.2019 09:00:00 10,9 -1,5 9 5 35 19 NNE 0,0
18.04.2019 08:00:00 10,2 -0,9 8 4 37 20 N -
18.04.2019 07:00:00 10,6 -0,6 11 6 39 21 NNE 0,0
18.04.2019 06:00:00 10,9 -0,6 13 7 39 21 NE 0,0
18.04.2019 05:00:00 8,5 0,7 5 3 16 9 NNE 0,0
18.04.2019 04:00:00 3,6 1,6 0 0 9 5 N 0,0
18.04.2019 03:00:00 4,6 2,3 2 1 8 4 SSW 0,0
18.04.2019 02:00:00 3,7 2,2 0 0 5 3 N -
18.04.2019 01:00:00 3,6 2,3 0 0 4 2 N 0,0
18.04.2019 00:00:00 3,9 2,1 0 0 4 2 N 0,0
17.04.2019 23:00:00 4,7 2,4 0 0 4 2 N 0,0
17.04.2019 22:00:00 6,1 3,3 0 0 8 4 N 0,0
17.04.2019 21:00:00 8,0 3,6 0 0 4 2 N 0,0
17.04.2019 20:00:00 10,6 3,8 0 0 5 3 N -
17.04.2019 19:00:00 13,1 3,5 4 2 13 7 NNE 0,0
17.04.2019 18:00:00 16,2 2,2 9 5 16 9 NW 0,0
17.04.2019 17:00:00 17,8 1,3 8 4 18 10 SW 0,0
17.04.2019 16:00:00 18,2 -0,1 8 4 18 10 WSW 0,0
17.04.2019 15:00:00 18,3 2,2 8 4 22 12 WSW 0,0
17.04.2019 14:00:00 17,3 1,7 5 3 21 11 SSW -
17.04.2019 13:00:00 16,3 0,4 8 4 15 8 SW 0,0
17.04.2019 12:00:00 14,6 1,1 4 2 11 6 S 0,0
17.04.2019 11:00:00 11,6 2,9 4 2 9 5 SSE 0,0
17.04.2019 10:00:00 4,7 4,6 0 0 4 2 N 0,0
17.04.2019 09:00:00 1,6 1,2 0 0 4 2 N 0,0
17.04.2019 08:00:00 1,9 1,5 2 1 5 3 E -
17.04.2019 07:00:00 2,8 2,2 0 0 5 3 N 0,0
17.04.2019 06:00:00 3,9 3,3 0 0 4 2 N 0,0
17.04.2019 05:00:00 4,4 4,0 0 0 4 2 N 0,0
17.04.2019 04:00:00 4,5 4,1 0 0 8 4 N 0,0
17.04.2019 03:00:00 4,7 4,3 0 0 4 2 N 0,0
17.04.2019 02:00:00 4,5 3,9 0 0 4 2 N -
17.04.2019 01:00:00 5,0 4,4 0 0 4 2 N 0,0
17.04.2019 00:00:00 5,3 4,6 0 0 4 2 N 0,0
16.04.2019 23:00:00 5,5 4,8 0 0 2 1 N 0,0
16.04.2019 22:00:00 5,8 4,9 0 0 2 1 N 0,0
16.04.2019 21:00:00 6,3 4,9 0 0 8 4 N 0,0
16.04.2019 20:00:00 7,3 4,9 0 0 9 5 N -
16.04.2019 19:00:00 7,7 4,6 2 1 11 6 SSW 0,2
16.04.2019 18:00:00 8,1 5,0 5 3 13 7 SW 0,4
16.04.2019 17:00:00 8,7 4,3 5 3 15 8 WSW 0,0
16.04.2019 16:00:00 9,1 3,7 5 3 18 10 SW 0,2

tt = Température de l'air
td = dewpoint
ff = Vitesse du vent
fx = gusts
dd = Direction du vent
rr = Quantités de précipitations

stations d'obs. à proximité